sensor_id;sensor_type;location;lat;lon;timestamp;pressure;altitude;pressure_sealevel;temperature
73662;BMP280;61956;52.540;13.382;2023-04-25T00:02:04;78181.53;;;9.83
73662;BMP280;61956;52.540;13.382;2023-04-25T00:04:34;78070.22;;;9.85
73662;BMP280;61956;52.540;13.382;2023-04-25T00:07:03;78580.28;;;9.88
73662;BMP280;61956;52.540;13.382;2023-04-25T00:09:33;79341.06;;;9.94
73662;BMP280;61956;52.540;13.382;2023-04-25T00:12:02;78790.25;;;9.91
73662;BMP280;61956;52.540;13.382;2023-04-25T00:14:32;78317.44;;;9.87
73662;BMP280;61956;52.540;13.382;2023-04-25T00:17:04;78424.66;;;9.89
73662;BMP280;61956;52.540;13.382;2023-04-25T00:19:33;78007.34;;;9.84
73662;BMP280;61956;52.540;13.382;2023-04-25T00:22:03;78031.84;;;9.83
73662;BMP280;61956;52.540;13.382;2023-04-25T00:24:33;78441.63;;;9.86
73662;BMP280;61956;52.540;13.382;2023-04-25T00:27:02;78557.31;;;9.86
73662;BMP280;61956;52.540;13.382;2023-04-25T00:29:31;77854.06;;;9.80
73662;BMP280;61956;52.540;13.382;2023-04-25T00:32:04;78615.84;;;9.85
73662;BMP280;61956;52.540;13.382;2023-04-25T00:34:34;77980.03;;;9.80
73662;BMP280;61956;52.540;13.382;2023-04-25T00:37:04;78074.53;;;9.80
73662;BMP280;61956;52.540;13.382;2023-04-25T00:39:33;78613.41;;;9.83
73662;BMP280;61956;52.540;13.382;2023-04-25T00:42:03;77580.84;;;9.75
73662;BMP280;61956;52.540;13.382;2023-04-25T00:44:33;77651.03;;;9.74
73662;BMP280;61956;52.540;13.382;2023-04-25T00:47:06;76982.19;;;9.68
73662;BMP280;61956;52.540;13.382;2023-04-25T00:49:36;76750.63;;;9.66
73662;BMP280;61956;52.540;13.382;2023-04-25T00:52:06;76537.34;;;9.61
73662;BMP280;61956;52.540;13.382;2023-04-25T00:54:35;76717.72;;;9.62
73662;BMP280;61956;52.540;13.382;2023-04-25T00:57:05;76775.81;;;9.59
73662;BMP280;61956;52.540;13.382;2023-04-25T00:59:35;77235.19;;;9.63
73662;BMP280;61956;52.540;13.382;2023-04-25T01:02:08;77278.28;;;9.62
73662;BMP280;61956;52.540;13.382;2023-04-25T01:04:38;77891.34;;;9.66
73662;BMP280;61956;52.540;13.382;2023-04-25T01:07:07;78367.81;;;9.69
73662;BMP280;61956;52.540;13.382;2023-04-25T01:09:38;78383.84;;;9.69
73662;BMP280;61956;52.540;13.382;2023-04-25T01:12:08;77327.09;;;9.62
73662;BMP280;61956;52.540;13.382;2023-04-25T01:14:37;77607.13;;;9.62
73662;BMP280;61956;52.540;13.382;2023-04-25T01:17:09;77867.81;;;9.63
73662;BMP280;61956;52.540;13.382;2023-04-25T01:19:40;78132.50;;;9.63
73662;BMP280;61956;52.540;13.382;2023-04-25T01:22:16;77855.75;;;9.62
73662;BMP280;61956;52.540;13.382;2023-04-25T01:24:46;77439.72;;;9.60
73662;BMP280;61956;52.540;13.382;2023-04-25T01:27:16;77871.19;;;9.62
73662;BMP280;61956;52.540;13.382;2023-04-25T01:29:47;77564.44;;;9.59
73662;BMP280;61956;52.540;13.382;2023-04-25T01:32:18;77756.31;;;9.60
73662;BMP280;61956;52.540;13.382;2023-04-25T01:34:48;77449.59;;;9.57
73662;BMP280;61956;52.540;13.382;2023-04-25T01:37:22;77631.41;;;9.57
73662;BMP280;61956;52.540;13.382;2023-04-25T01:39:51;77476.06;;;9.56
73662;BMP280;61956;52.540;13.382;2023-04-25T01:42:22;78324.19;;;9.60
73662;BMP280;61956;52.540;13.382;2023-04-25T01:44:51;79241.19;;;9.68
73662;BMP280;61956;52.540;13.382;2023-04-25T01:47:20;79005.44;;;9.67
73662;BMP280;61956;52.540;13.382;2023-04-25T01:49:50;79611.97;;;9.71
73662;BMP280;61956;52.540;13.382;2023-04-25T01:52:21;78860.88;;;9.66
73662;BMP280;61956;52.540;13.382;2023-04-25T01:54:51;78959.16;;;9.67
73662;BMP280;61956;52.540;13.382;2023-04-25T01:57:21;78925.16;;;9.66
73662;BMP280;61956;52.540;13.382;2023-04-25T01:59:50;79220.63;;;9.68
73662;BMP280;61956;52.540;13.382;2023-04-25T02:02:38;78621.41;;;9.64
73662;BMP280;61956;52.540;13.382;2023-04-25T02:05:20;79259.19;;;9.68
73662;BMP280;61956;52.540;13.382;2023-04-25T02:07:52;79280.53;;;9.67
73662;BMP280;61956;52.540;13.382;2023-04-25T02:10:24;78830.03;;;9.66
73662;BMP280;61956;52.540;13.382;2023-04-25T02:13:03;77849.16;;;9.56
73662;BMP280;61956;52.540;13.382;2023-04-25T02:15:42;77972.50;;;9.56
73662;BMP280;61956;52.540;13.382;2023-04-25T02:18:15;78293.53;;;9.58
73662;BMP280;61956;52.540;13.382;2023-04-25T02:20:48;77574.69;;;9.52
73662;BMP280;61956;52.540;13.382;2023-04-25T02:23:19;76513.69;;;9.43
73662;BMP280;61956;52.540;13.382;2023-04-25T02:25:49;77383.81;;;9.47
73662;BMP280;61956;52.540;13.382;2023-04-25T02:28:19;78126.44;;;9.52
73662;BMP280;61956;52.540;13.382;2023-04-25T02:30:48;76872.59;;;9.42
73662;BMP280;61956;52.540;13.382;2023-04-25T02:33:17;77581.19;;;9.44
73662;BMP280;61956;52.540;13.382;2023-04-25T02:35:46;77594.63;;;9.45
73662;BMP280;61956;52.540;13.382;2023-04-25T02:38:18;78063.13;;;9.48
73662;BMP280;61956;52.540;13.382;2023-04-25T02:40:47;78319.31;;;9.50
73662;BMP280;61956;52.540;13.382;2023-04-25T02:43:17;78123.59;;;9.47
73662;BMP280;61956;52.540;13.382;2023-04-25T02:45:47;78592.28;;;9.50
73662;BMP280;61956;52.540;13.382;2023-04-25T02:48:17;77777.00;;;9.45
73662;BMP280;61956;52.540;13.382;2023-04-25T02:50:48;77854.06;;;9.45
73662;BMP280;61956;52.540;13.382;2023-04-25T02:53:20;78752.78;;;9.51
73662;BMP280;61956;52.540;13.382;2023-04-25T02:55:52;78833.81;;;9.50
73662;BMP280;61956;52.540;13.382;2023-04-25T02:58:24;78918.50;;;9.52
73662;BMP280;61956;52.540;13.382;2023-04-25T03:00:53;78043.38;;;9.46
73662;BMP280;61956;52.540;13.382;2023-04-25T03:03:23;77887.03;;;9.42
73662;BMP280;61956;52.540;13.382;2023-04-25T03:05:52;78871.16;;;9.49
73662;BMP280;61956;52.540;13.382;2023-04-25T03:08:31;78767.16;;;9.48
73662;BMP280;61956;52.540;13.382;2023-04-25T03:11:01;78926.34;;;9.50
73662;BMP280;61956;52.540;13.382;2023-04-25T03:13:31;78332.50;;;9.45
73662;BMP280;61956;52.540;13.382;2023-04-25T03:16:00;78335.81;;;9.44
73662;BMP280;61956;52.540;13.382;2023-04-25T03:18:29;79080.69;;;9.48
73662;BMP280;61956;52.540;13.382;2023-04-25T03:20:59;78777.00;;;9.45
73662;BMP280;61956;52.540;13.382;2023-04-25T03:23:33;77431.03;;;9.37
73662;BMP280;61956;52.540;13.382;2023-04-25T03:26:02;77788.59;;;9.37
73662;BMP280;61956;52.540;13.382;2023-04-25T03:28:32;77553.31;;;9.34
73662;BMP280;61956;52.540;13.382;2023-04-25T03:31:01;77179.97;;;9.31
73662;BMP280;61956;52.540;13.382;2023-04-25T03:33:30;78085.34;;;9.36
73662;BMP280;61956;52.540;13.382;2023-04-25T03:35:59;78089.91;;;9.36
73662;BMP280;61956;52.540;13.382;2023-04-25T03:38:29;78627.22;;;9.38
73662;BMP280;61956;52.540;13.382;2023-04-25T03:41:01;77788.97;;;9.33
73662;BMP280;61956;52.540;13.382;2023-04-25T03:43:39;77530.56;;;9.30
73662;BMP280;61956;52.540;13.382;2023-04-25T03:46:12;76935.53;;;9.23
73662;BMP280;61956;52.540;13.382;2023-04-25T03:48:41;76942.66;;;9.23
73662;BMP280;61956;52.540;13.382;2023-04-25T03:51:15;76970.31;;;9.22
73662;BMP280;61956;52.540;13.382;2023-04-25T03:53:45;77330.31;;;9.23
73662;BMP280;61956;52.540;13.382;2023-04-25T03:56:42;78754.19;;;9.33
73662;BMP280;61956;52.540;13.382;2023-04-25T03:59:18;78371.59;;;9.31
73662;BMP280;61956;52.540;13.382;2023-04-25T04:01:47;77790.72;;;9.28
73662;BMP280;61956;52.540;13.382;2023-04-25T04:04:16;78308.75;;;9.30
73662;BMP280;61956;52.540;13.382;2023-04-25T04:06:46;78980.13;;;9.35
73662;BMP280;61956;52.540;13.382;2023-04-25T04:09:21;78449.41;;;9.29
73662;BMP280;61956;52.540;13.382;2023-04-25T04:11:54;78253.59;;;9.29
73662;BMP280;61956;52.540;13.382;2023-04-25T04:14:23;78555.94;;;9.30
73662;BMP280;61956;52.540;13.382;2023-04-25T04:16:52;77985.47;;;9.26
73662;BMP280;61956;52.540;13.382;2023-04-25T04:19:22;78857.69;;;9.31
73662;BMP280;61956;52.540;13.382;2023-04-25T04:22:13;78518.16;;;9.29
73662;BMP280;61956;52.540;13.382;2023-04-25T04:24:42;79317.47;;;9.33
73662;BMP280;61956;52.540;13.382;2023-04-25T04:27:17;78333.38;;;9.27
73662;BMP280;61956;52.540;13.382;2023-04-25T04:29:53;79183.84;;;9.33
73662;BMP280;61956;52.540;13.382;2023-04-25T04:32:31;78955.94;;;9.32
73662;BMP280;61956;52.540;13.382;2023-04-25T04:35:05;79789.50;;;9.37
73662;BMP280;61956;52.540;13.382;2023-04-25T04:37:38;80146.63;;;9.39
73662;BMP280;61956;52.540;13.382;2023-04-25T04:40:10;80133.06;;;9.40
73662;BMP280;61956;52.540;13.382;2023-04-25T04:42:57;79607.75;;;9.35
73662;BMP280;61956;52.540;13.382;2023-04-25T04:45:47;79523.53;;;9.36
73662;BMP280;61956;52.540;13.382;2023-04-25T04:48:39;79920.56;;;9.37
73662;BMP280;61956;52.540;13.382;2023-04-25T04:51:21;81127.22;;;9.46
73662;BMP280;61956;52.540;13.382;2023-04-25T04:54:14;81338.66;;;9.48
73662;BMP280;61956;52.540;13.382;2023-04-25T04:57:04;80745.91;;;9.47
73662;BMP280;61956;52.540;13.382;2023-04-25T04:59:43;81134.84;;;9.48
73662;BMP280;61956;52.540;13.382;2023-04-25T05:02:31;80983.72;;;9.48
73662;BMP280;61956;52.540;13.382;2023-04-25T05:05:20;81704.38;;;9.55
73662;BMP280;61956;52.540;13.382;2023-04-25T05:08:09;81814.31;;;9.57
73662;BMP280;61956;52.540;13.382;2023-04-25T05:10:47;82193.78;;;9.60
73662;BMP280;61956;52.540;13.382;2023-04-25T05:13:31;82072.19;;;9.59
73662;BMP280;61956;52.540;13.382;2023-04-25T05:16:21;81523.59;;;9.57
73662;BMP280;61956;52.540;13.382;2023-04-25T05:19:13;81586.66;;;9.56
73662;BMP280;61956;52.540;13.382;2023-04-25T05:22:02;81024.03;;;9.54
73662;BMP280;61956;52.540;13.382;2023-04-25T05:24:42;81045.94;;;9.53
73662;BMP280;61956;52.540;13.382;2023-04-25T05:27:47;82379.66;;;9.62
73662;BMP280;61956;52.540;13.382;2023-04-25T05:30:40;82147.41;;;9.62
73662;BMP280;61956;52.540;13.382;2023-04-25T05:33:24;81752.53;;;9.59
73662;BMP280;61956;52.540;13.382;2023-04-25T05:35:53;81459.91;;;9.57
73662;BMP280;61956;52.540;13.382;2023-04-25T05:38:23;81187.31;;;9.55
73662;BMP280;61956;52.540;13.382;2023-04-25T05:41:30;80795.22;;;9.52
73662;BMP280;61956;52.540;13.382;2023-04-25T05:44:12;82581.03;;;9.63
73662;BMP280;61956;52.540;13.382;2023-04-25T05:47:02;82904.63;;;9.68
73662;BMP280;61956;52.540;13.382;2023-04-25T05:49:57;82369.91;;;9.67
73662;BMP280;61956;52.540;13.382;2023-04-25T05:52:49;81565.97;;;9.60
73662;BMP280;61956;52.540;13.382;2023-04-25T05:55:45;81266.97;;;9.57
73662;BMP280;61956;52.540;13.382;2023-04-25T05:58:24;81809.75;;;9.59
73662;BMP280;61956;52.540;13.382;2023-04-25T06:00:54;82958.69;;;9.68
73662;BMP280;61956;52.540;13.382;2023-04-25T06:03:24;83568.88;;;9.75
73662;BMP280;61956;52.540;13.382;2023-04-25T06:05:55;83312.69;;;9.74
73662;BMP280;61956;52.540;13.382;2023-04-25T06:08:25;82952.25;;;9.72
73662;BMP280;61956;52.540;13.382;2023-04-25T06:10:54;83167.22;;;9.73
73662;BMP280;61956;52.540;13.382;2023-04-25T06:13:24;83413.75;;;9.74
73662;BMP280;61956;52.540;13.382;2023-04-25T06:15:54;84864.75;;;9.87
73662;BMP280;61956;52.540;13.382;2023-04-25T06:18:23;83725.38;;;9.82
73662;BMP280;61956;52.540;13.382;2023-04-25T06:20:55;84668.31;;;9.88
73662;BMP280;61956;52.540;13.382;2023-04-25T06:23:25;83671.94;;;9.83
73662;BMP280;61956;52.540;13.382;2023-04-25T06:26:03;83921.78;;;9.85
73662;BMP280;61956;52.540;13.382;2023-04-25T06:28:35;83498.72;;;9.82
73662;BMP280;61956;52.540;13.382;2023-04-25T06:31:05;81771.50;;;9.70
73662;BMP280;61956;52.540;13.382;2023-04-25T06:33:34;82832.50;;;9.75
73662;BMP280;61956;52.540;13.382;2023-04-25T06:36:07;82753.31;;;9.75
73662;BMP280;61956;52.540;13.382;2023-04-25T06:38:37;82304.84;;;9.73
73662;BMP280;61956;52.540;13.382;2023-04-25T06:41:06;82172.34;;;9.69
73662;BMP280;61956;52.540;13.382;2023-04-25T06:43:36;83068.06;;;9.76
73662;BMP280;61956;52.540;13.382;2023-04-25T06:46:31;82299.72;;;9.70
73662;BMP280;61956;52.540;13.382;2023-04-25T06:49:00;82360.22;;;9.69
73662;BMP280;61956;52.540;13.382;2023-04-25T06:51:32;81564.50;;;9.65
73662;BMP280;61956;52.540;13.382;2023-04-25T06:54:01;81787.13;;;9.64
73662;BMP280;61956;52.540;13.382;2023-04-25T06:56:41;82165.28;;;9.68
73662;BMP280;61956;52.540;13.382;2023-04-25T06:59:13;81531.84;;;9.61
73662;BMP280;61956;52.540;13.382;2023-04-25T07:01:44;79714.31;;;9.47
73662;BMP280;61956;52.540;13.382;2023-04-25T07:04:17;79981.06;;;9.46
73662;BMP280;61956;52.540;13.382;2023-04-25T07:06:53;80622.38;;;9.50
73662;BMP280;61956;52.540;13.382;2023-04-25T07:09:30;81098.00;;;9.54
73662;BMP280;61956;52.540;13.382;2023-04-25T07:12:00;81083.28;;;9.52
73662;BMP280;61956;52.540;13.382;2023-04-25T07:14:29;81957.06;;;9.58
73662;BMP280;61956;52.540;13.382;2023-04-25T07:16:59;80508.63;;;9.49
73662;BMP280;61956;52.540;13.382;2023-04-25T07:19:31;80651.38;;;9.48
73662;BMP280;61956;52.540;13.382;2023-04-25T07:22:04;81490.91;;;9.53
73662;BMP280;61956;52.540;13.382;2023-04-25T07:24:35;81421.47;;;9.53
73662;BMP280;61956;52.540;13.382;2023-04-25T07:27:05;82535.41;;;9.59
73662;BMP280;61956;52.540;13.382;2023-04-25T07:29:52;84932.88;;;9.80
73662;BMP280;61956;52.540;13.382;2023-04-25T07:32:22;84329.97;;;9.78
73662;BMP280;61956;52.540;13.382;2023-04-25T07:34:52;83140.19;;;9.69
73662;BMP280;61956;52.540;13.382;2023-04-25T07:37:24;84369.28;;;9.78
73662;BMP280;61956;52.540;13.382;2023-04-25T07:40:10;82348.03;;;9.66
73662;BMP280;61956;52.540;13.382;2023-04-25T07:42:45;83413.75;;;9.70
73662;BMP280;61956;52.540;13.382;2023-04-25T07:45:19;82829.97;;;9.68
73662;BMP280;61956;52.540;13.382;2023-04-25T07:47:48;82364.19;;;9.64
73662;BMP280;61956;52.540;13.382;2023-04-25T07:50:18;82629.19;;;9.68
73662;BMP280;61956;52.540;13.382;2023-04-25T07:52:49;83635.84;;;9.73
73662;BMP280;61956;52.540;13.382;2023-04-25T07:55:26;83669.31;;;9.75
73662;BMP280;61956;52.540;13.382;2023-04-25T07:58:02;81811.63;;;9.61
73662;BMP280;61956;52.540;13.382;2023-04-25T08:00:32;82902.06;;;9.68
73662;BMP280;61956;52.540;13.382;2023-04-25T08:03:21;85523.19;;;9.86
73662;BMP280;61956;52.540;13.382;2023-04-25T08:05:51;87570.16;;;10.03
73662;BMP280;61956;52.540;13.382;2023-04-25T08:08:23;86718.13;;;10.01
73662;BMP280;61956;52.540;13.382;2023-04-25T08:10:53;89666.81;;;10.27
73662;BMP280;61956;52.540;13.382;2023-04-25T08:13:22;88361.81;;;10.22
73662;BMP280;61956;52.540;13.382;2023-04-25T08:15:52;88238.75;;;10.25
73662;BMP280;61956;52.540;13.382;2023-04-25T08:18:21;87059.63;;;10.19
73662;BMP280;61956;52.540;13.382;2023-04-25T08:20:52;87350.66;;;10.21
73662;BMP280;61956;52.540;13.382;2023-04-25T08:23:23;88376.06;;;10.31
73662;BMP280;61956;52.540;13.382;2023-04-25T08:26:02;91995.25;;;10.58
73662;BMP280;61956;52.540;13.382;2023-04-25T08:28:35;94923.56;;;10.90
73662;BMP280;61956;52.540;13.382;2023-04-25T08:31:04;91358.31;;;10.73
73662;BMP280;61956;52.540;13.382;2023-04-25T08:33:43;87013.84;;;10.43
73662;BMP280;61956;52.540;13.382;2023-04-25T08:36:34;88316.88;;;10.50
73662;BMP280;61956;52.540;13.382;2023-04-25T08:39:06;92290.63;;;10.81
73662;BMP280;61956;52.540;13.382;2023-04-25T08:41:45;92101.13;;;10.86
73662;BMP280;61956;52.540;13.382;2023-04-25T08:44:16;91126.78;;;10.83
73662;BMP280;61956;52.540;13.382;2023-04-25T08:46:46;90039.78;;;10.80
73662;BMP280;61956;52.540;13.382;2023-04-25T08:49:26;93506.06;;;11.04
73662;BMP280;61956;52.540;13.382;2023-04-25T08:51:59;96561.50;;;11.40
73662;BMP280;61956;52.540;13.382;2023-04-25T08:54:33;101395.19;;;11.86
73662;BMP280;61956;52.540;13.382;2023-04-25T08:57:06;99626.72;;;11.93
73662;BMP280;61956;52.540;13.382;2023-04-25T08:59:36;98470.00;;;11.96
73662;BMP280;61956;52.540;13.382;2023-04-25T09:02:11;101157.41;;;12.24
73662;BMP280;61956;52.540;13.382;2023-04-25T09:04:46;97421.22;;;12.10
73662;BMP280;61956;52.540;13.382;2023-04-25T09:07:15;92165.72;;;11.76
73662;BMP280;61956;52.540;13.382;2023-04-25T09:09:49;92637.06;;;11.74
73662;BMP280;61956;52.540;13.382;2023-04-25T09:12:21;93781.50;;;11.82
73662;BMP280;61956;52.540;13.382;2023-04-25T09:15:02;91099.00;;;11.71
73662;BMP280;61956;52.540;13.382;2023-04-25T09:17:59;89597.56;;;11.54
73662;BMP280;61956;52.540;13.382;2023-04-25T09:20:41;95596.13;;;12.01
73662;BMP280;61956;52.540;13.382;2023-04-25T09:23:11;89885.63;;;11.62
73662;BMP280;61956;52.540;13.382;2023-04-25T09:25:43;91883.47;;;11.73
73662;BMP280;61956;52.540;13.382;2023-04-25T09:28:12;93552.41;;;11.89
73662;BMP280;61956;52.540;13.382;2023-04-25T09:30:42;95038.94;;;12.02
73662;BMP280;61956;52.540;13.382;2023-04-25T09:33:27;96603.19;;;12.29
73662;BMP280;61956;52.540;13.382;2023-04-25T09:36:02;97514.03;;;12.43
73662;BMP280;61956;52.540;13.382;2023-04-25T09:39:12;91266.97;;;12.01
73662;BMP280;61956;52.540;13.382;2023-04-25T09:41:56;92003.34;;;12.03
73662;BMP280;61956;52.540;13.382;2023-04-25T09:44:25;87259.47;;;11.65
73662;BMP280;61956;52.540;13.382;2023-04-25T09:46:55;88708.53;;;11.69
73662;BMP280;61956;52.540;13.382;2023-04-25T09:49:27;88492.91;;;11.66
73662;BMP280;61956;52.540;13.382;2023-04-25T09:52:10;91089.13;;;11.81
73662;BMP280;61956;52.540;13.382;2023-04-25T09:54:53;89971.75;;;11.76
73662;BMP280;61956;52.540;13.382;2023-04-25T09:57:33;88072.13;;;11.61
73662;BMP280;61956;52.540;13.382;2023-04-25T10:00:07;90306.06;;;11.73
73662;BMP280;61956;52.540;13.382;2023-04-25T10:02:43;95376.69;;;12.18
73662;BMP280;61956;52.540;13.382;2023-04-25T10:05:49;89961.41;;;11.90
73662;BMP280;61956;52.540;13.382;2023-04-25T10:08:19;88001.44;;;11.68
73662;BMP280;61956;52.540;13.382;2023-04-25T10:10:52;87758.66;;;11.65
73662;BMP280;61956;52.540;13.382;2023-04-25T10:13:24;90904.97;;;11.84
73662;BMP280;61956;52.540;13.382;2023-04-25T10:15:56;91529.41;;;11.96
73662;BMP280;61956;52.540;13.382;2023-04-25T10:18:26;92473.28;;;12.03
73662;BMP280;61956;52.540;13.382;2023-04-25T10:21:00;90100.06;;;11.91
73662;BMP280;61956;52.540;13.382;2023-04-25T10:23:31;90188.13;;;11.91
73662;BMP280;61956;52.540;13.382;2023-04-25T10:26:01;89525.28;;;11.85
73662;BMP280;61956;52.540;13.382;2023-04-25T10:28:54;90171.69;;;11.88
73662;BMP280;61956;52.540;13.382;2023-04-25T10:31:25;91675.31;;;12.02
73662;BMP280;61956;52.540;13.382;2023-04-25T10:33:54;89368.03;;;11.85
73662;BMP280;61956;52.540;13.382;2023-04-25T10:36:24;87055.94;;;11.67
73662;BMP280;61956;52.540;13.382;2023-04-25T10:38:54;89131.78;;;11.77
73662;BMP280;61956;52.540;13.382;2023-04-25T10:41:26;94759.31;;;12.20
73662;BMP280;61956;52.540;13.382;2023-04-25T10:44:04;93282.47;;;12.22
73662;BMP280;61956;52.540;13.382;2023-04-25T10:46:33;92107.72;;;12.18
73662;BMP280;61956;52.540;13.382;2023-04-25T10:49:03;88161.19;;;11.87
73662;BMP280;61956;52.540;13.382;2023-04-25T10:51:34;89091.69;;;11.86
73662;BMP280;61956;52.540;13.382;2023-04-25T10:54:06;88889.75;;;11.86
73662;BMP280;61956;52.540;13.382;2023-04-25T10:56:37;89259.97;;;11.86
73662;BMP280;61956;52.540;13.382;2023-04-25T10:59:14;90908.47;;;11.98
73662;BMP280;61956;52.540;13.382;2023-04-25T11:01:45;90035.00;;;11.94
73662;BMP280;61956;52.540;13.382;2023-04-25T11:04:23;90785.50;;;11.99
73662;BMP280;61956;52.540;13.382;2023-04-25T11:07:10;90009.00;;;12.00
73662;BMP280;61956;52.540;13.382;2023-04-25T11:09:48;88063.28;;;11.83
73662;BMP280;61956;52.540;13.382;2023-04-25T11:12:18;85082.41;;;11.56
73662;BMP280;61956;52.540;13.382;2023-04-25T11:14:50;81731.31;;;11.26
73662;BMP280;61956;52.540;13.382;2023-04-25T11:17:19;78383.97;;;10.90
73662;BMP280;61956;52.540;13.382;2023-04-25T11:19:48;80639.25;;;10.95
73662;BMP280;61956;52.540;13.382;2023-04-25T11:22:18;81466.69;;;10.97
73662;BMP280;61956;52.540;13.382;2023-04-25T11:24:47;80872.78;;;10.90
73662;BMP280;61956;52.540;13.382;2023-04-25T11:27:17;81525.56;;;10.90
73662;BMP280;61956;52.540;13.382;2023-04-25T11:29:49;86315.84;;;11.21
73662;BMP280;61956;52.540;13.382;2023-04-25T11:32:18;84311.50;;;11.11
73662;BMP280;61956;52.540;13.382;2023-04-25T11:34:48;85857.88;;;11.21
73662;BMP280;61956;52.540;13.382;2023-04-25T11:37:17;85873.44;;;11.23
73662;BMP280;61956;52.540;13.382;2023-04-25T11:39:47;87950.97;;;11.38
73662;BMP280;61956;52.540;13.382;2023-04-25T11:42:16;88638.28;;;11.47
73662;BMP280;61956;52.540;13.382;2023-04-25T11:44:48;91331.44;;;11.71
73662;BMP280;61956;52.540;13.382;2023-04-25T11:47:18;92606.25;;;11.85
73662;BMP280;61956;52.540;13.382;2023-04-25T11:49:48;92026.25;;;11.90
73662;BMP280;61956;52.540;13.382;2023-04-25T11:52:21;92732.44;;;11.98
73662;BMP280;61956;52.540;13.382;2023-04-25T11:54:50;92164.47;;;12.01
73662;BMP280;61956;52.540;13.382;2023-04-25T11:57:21;89743.97;;;11.84
73662;BMP280;61956;52.540;13.382;2023-04-25T11:59:53;91763.88;;;12.00
73662;BMP280;61956;52.540;13.382;2023-04-25T12:02:25;91436.38;;;11.98
73662;BMP280;61956;52.540;13.382;2023-04-25T12:04:59;93078.94;;;12.14
73662;BMP280;61956;52.540;13.382;2023-04-25T12:07:29;90973.94;;;12.04
73662;BMP280;61956;52.540;13.382;2023-04-25T12:09:58;91687.13;;;12.08
73662;BMP280;61956;52.540;13.382;2023-04-25T12:12:32;90678.31;;;12.02
73662;BMP280;61956;52.540;13.382;2023-04-25T12:15:18;86258.88;;;11.69
73662;BMP280;61956;52.540;13.382;2023-04-25T12:17:54;85950.88;;;11.58
73662;BMP280;61956;52.540;13.382;2023-04-25T12:20:24;86179.53;;;11.55
73662;BMP280;61956;52.540;13.382;2023-04-25T12:22:54;85756.75;;;11.50
73662;BMP280;61956;52.540;13.382;2023-04-25T12:25:36;88030.31;;;11.65
73662;BMP280;61956;52.540;13.382;2023-04-25T12:28:13;87100.72;;;11.58
73662;BMP280;61956;52.540;13.382;2023-04-25T12:30:58;89732.88;;;11.76
73662;BMP280;61956;52.540;13.382;2023-04-25T12:33:30;90490.53;;;11.84
73662;BMP280;61956;52.540;13.382;2023-04-25T12:36:04;90719.38;;;11.87
73662;BMP280;61956;52.540;13.382;2023-04-25T12:38:39;88087.63;;;11.71
73662;BMP280;61956;52.540;13.382;2023-04-25T12:41:13;89327.47;;;11.80
73662;BMP280;61956;52.540;13.382;2023-04-25T12:43:42;88645.50;;;11.74
73662;BMP280;61956;52.540;13.382;2023-04-25T12:46:16;89290.34;;;11.78
73662;BMP280;61956;52.540;13.382;2023-04-25T12:48:45;91231.88;;;11.94
73662;BMP280;61956;52.540;13.382;2023-04-25T12:51:14;91612.84;;;12.00
73662;BMP280;61956;52.540;13.382;2023-04-25T12:53:44;91271.47;;;12.00
73662;BMP280;61956;52.540;13.382;2023-04-25T12:56:13;91613.34;;;12.04
73662;BMP280;61956;52.540;13.382;2023-04-25T12:58:42;90882.06;;;12.00
73662;BMP280;61956;52.540;13.382;2023-04-25T13:01:16;90135.53;;;11.96
73662;BMP280;61956;52.540;13.382;2023-04-25T13:03:46;90929.41;;;12.00
73662;BMP280;61956;52.540;13.382;2023-04-25T13:06:16;92212.50;;;12.11
73662;BMP280;61956;52.540;13.382;2023-04-25T13:08:46;93341.28;;;12.25
73662;BMP280;61956;52.540;13.382;2023-04-25T13:11:16;91381.78;;;12.13
73662;BMP280;61956;52.540;13.382;2023-04-25T13:13:45;94617.84;;;12.39
73662;BMP280;61956;52.540;13.382;2023-04-25T13:16:17;96924.28;;;12.62
73662;BMP280;61956;52.540;13.382;2023-04-25T13:18:47;97717.19;;;12.83
73662;BMP280;61956;52.540;13.382;2023-04-25T13:21:16;97523.13;;;12.91
73662;BMP280;61956;52.540;13.382;2023-04-25T13:23:45;89386.78;;;12.30
73662;BMP280;61956;52.540;13.382;2023-04-25T13:26:16;84827.75;;;11.90
73662;BMP280;61956;52.540;13.382;2023-04-25T13:28:45;85281.88;;;11.79
73662;BMP280;61956;52.540;13.382;2023-04-25T13:31:17;87768.66;;;11.90
73662;BMP280;61956;52.540;13.382;2023-04-25T13:33:46;88546.78;;;11.95
73662;BMP280;61956;52.540;13.382;2023-04-25T13:36:15;91215.63;;;12.16
73662;BMP280;61956;52.540;13.382;2023-04-25T13:38:45;89982.69;;;12.09
73662;BMP280;61956;52.540;13.382;2023-04-25T13:41:14;88387.81;;;11.98
73662;BMP280;61956;52.540;13.382;2023-04-25T13:43:45;85851.91;;;11.76
73662;BMP280;61956;52.540;13.382;2023-04-25T13:46:18;86604.41;;;11.76
73662;BMP280;61956;52.540;13.382;2023-04-25T13:48:47;86245.38;;;11.70
73662;BMP280;61956;52.540;13.382;2023-04-25T13:51:16;89241.69;;;11.92
73662;BMP280;61956;52.540;13.382;2023-04-25T13:53:46;89756.69;;;11.95
73662;BMP280;61956;52.540;13.382;2023-04-25T13:56:15;92315.16;;;12.18
73662;BMP280;61956;52.540;13.382;2023-04-25T13:58:45;91174.16;;;12.16
73662;BMP280;61956;52.540;13.382;2023-04-25T14:01:14;90219.16;;;12.09
73662;BMP280;61956;52.540;13.382;2023-04-25T14:03:47;89055.41;;;12.01
73662;BMP280;61956;52.540;13.382;2023-04-25T14:06:16;85588.06;;;11.72
73662;BMP280;61956;52.540;13.382;2023-04-25T14:08:48;86005.50;;;11.69
73662;BMP280;61956;52.540;13.382;2023-04-25T14:11:17;85382.25;;;11.58
73662;BMP280;61956;52.540;13.382;2023-04-25T14:13:47;85691.72;;;11.58
73662;BMP280;61956;52.540;13.382;2023-04-25T14:16:19;84808.44;;;11.50
73662;BMP280;61956;52.540;13.382;2023-04-25T14:18:49;85197.25;;;11.49
73662;BMP280;61956;52.540;13.382;2023-04-25T14:21:18;86219.63;;;11.56
73662;BMP280;61956;52.540;13.382;2023-04-25T14:23:47;86202.78;;;11.55
73662;BMP280;61956;52.540;13.382;2023-04-25T14:26:16;85801.34;;;11.51
73662;BMP280;61956;52.540;13.382;2023-04-25T14:28:46;85798.69;;;11.49
73662;BMP280;61956;52.540;13.382;2023-04-25T14:31:15;85063.41;;;11.42
73662;BMP280;61956;52.540;13.382;2023-04-25T14:33:47;86785.63;;;11.52
73662;BMP280;61956;52.540;13.382;2023-04-25T14:36:16;87720.03;;;11.57
73662;BMP280;61956;52.540;13.382;2023-04-25T14:38:46;91197.94;;;11.86
73662;BMP280;61956;52.540;13.382;2023-04-25T14:41:15;91864.44;;;11.96